createdAt,value
2019-04-05T00:01:25.713Z,38.20
2019-04-05T00:03:55.063Z,42.00
2019-04-05T00:06:24.273Z,41.33
2019-04-05T00:08:53.778Z,41.83
2019-04-05T00:11:24.107Z,40.80
2019-04-05T00:13:55.328Z,41.40
2019-04-05T00:16:24.465Z,42.57
2019-04-05T00:18:55.616Z,42.73
2019-04-05T00:21:24.716Z,42.27
2019-04-05T00:23:55.673Z,36.27
2019-04-05T00:26:24.783Z,36.00
2019-04-05T00:28:53.898Z,36.87
2019-04-05T00:31:25.300Z,34.83
2019-04-05T00:33:55.921Z,35.20
2019-04-05T00:36:25.094Z,36.53
2019-04-05T00:38:57.979Z,37.27
2019-04-05T00:41:29.720Z,35.17
2019-04-05T00:43:58.949Z,36.50
2019-04-05T00:46:28.122Z,36.03
2019-04-05T00:48:57.252Z,36.87
2019-04-05T00:51:26.369Z,35.73
2019-04-05T00:53:57.366Z,36.17
2019-04-05T00:56:26.488Z,36.93
2019-04-05T00:58:58.098Z,36.77
2019-04-05T01:01:28.295Z,37.27
2019-04-05T01:03:57.464Z,36.17
2019-04-05T01:06:27.784Z,36.37
2019-04-05T01:09:07.324Z,37.47
2019-04-05T01:11:36.868Z,38.60
2019-04-05T01:14:06.311Z,37.67
2019-04-05T01:16:35.469Z,37.20
2019-04-05T01:19:06.333Z,39.30
2019-04-05T01:21:39.872Z,39.07
2019-04-05T01:24:13.631Z,40.47
2019-04-05T01:26:47.320Z,39.10
2019-04-05T01:29:16.721Z,37.77
2019-04-05T01:31:46.048Z,45.57
2019-04-05T01:34:17.875Z,45.07
2019-04-05T01:36:46.960Z,45.93
2019-04-05T01:39:17.751Z,44.37
2019-04-05T01:41:48.633Z,45.23
2019-04-05T01:44:18.864Z,45.17
2019-04-05T01:46:48.849Z,46.43
2019-04-05T01:49:26.272Z,44.60
2019-04-05T01:51:56.526Z,45.50
2019-04-05T01:54:25.676Z,47.90
2019-04-05T01:56:54.928Z,45.27
2019-04-05T01:59:24.095Z,46.00
2019-04-05T02:01:53.229Z,48.03
2019-04-05T02:04:23.631Z,47.47
2019-04-05T02:06:56.278Z,47.33
2019-04-05T02:09:27.840Z,47.00
2019-04-05T02:11:57.010Z,46.63
2019-04-05T02:14:27.111Z,46.03
2019-04-05T02:16:58.556Z,47.03
2019-04-05T02:19:27.729Z,47.90
2019-04-05T02:21:58.727Z,45.13
2019-04-05T02:24:27.872Z,43.60
2019-04-05T02:26:57.017Z,43.63
2019-04-05T02:29:26.135Z,44.70
2019-04-05T02:31:55.396Z,43.67
2019-04-05T02:34:24.607Z,43.03
2019-04-05T02:36:53.845Z,41.43
2019-04-05T02:39:22.984Z,44.10
2019-04-05T02:41:56.048Z,43.03
2019-04-05T02:44:26.635Z,43.40
2019-04-05T02:46:56.502Z,44.47
2019-04-05T02:49:29.166Z,43.17
2019-04-05T02:52:01.759Z,43.90
2019-04-05T02:54:32.407Z,42.43
2019-04-05T02:57:02.518Z,44.97
2019-04-05T02:59:33.559Z,43.63
2019-04-05T03:02:05.012Z,44.90
2019-04-05T03:04:34.554Z,45.23
2019-04-05T03:07:04.407Z,44.83
2019-04-05T03:09:36.482Z,44.87
2019-04-05T03:12:06.641Z,45.57
2019-04-05T03:14:39.699Z,45.17
2019-04-05T03:17:09.496Z,45.17
2019-04-05T03:19:40.207Z,44.80
2019-04-05T03:22:12.358Z,43.60
2019-04-05T03:24:44.362Z,45.27
2019-04-05T03:27:21.425Z,44.13
2019-04-05T03:29:52.464Z,45.70
2019-04-05T03:32:22.499Z,45.00
2019-04-05T03:34:52.271Z,44.17
2019-04-05T03:37:23.921Z,43.47
2019-04-05T03:39:55.468Z,43.47
2019-04-05T03:42:24.835Z,44.63
2019-04-05T03:44:56.668Z,43.73
2019-04-05T03:47:25.910Z,46.07
2019-04-05T03:49:56.902Z,44.43
2019-04-05T03:52:26.033Z,54.10
2019-04-05T03:54:55.167Z,53.87
2019-04-05T03:57:24.541Z,58.37
2019-04-05T03:59:54.097Z,58.07
2019-04-05T04:02:23.656Z,58.90
2019-04-05T04:04:53.177Z,57.93
2019-04-05T04:07:22.396Z,60.03
2019-04-05T04:09:53.271Z,58.17
2019-04-05T04:12:22.541Z,57.57
2019-04-05T04:14:57.584Z,56.70
2019-04-05T04:17:26.682Z,58.10
2019-04-05T04:19:56.657Z,58.57
2019-04-05T04:22:30.114Z,50.00
2019-04-05T04:25:00.131Z,50.90
2019-04-05T04:27:32.829Z,50.87
2019-04-05T04:30:02.616Z,49.13
2019-04-05T04:32:31.878Z,49.70
2019-04-05T04:35:03.234Z,51.07
2019-04-05T04:37:33.093Z,50.67
2019-04-05T04:40:02.518Z,52.10
2019-04-05T04:42:32.304Z,56.60
2019-04-05T04:45:12.116Z,57.77
2019-04-05T04:47:33.456Z,62.83
2019-04-05T04:50:03.018Z,62.33
2019-04-05T04:52:33.358Z,60.50
2019-04-05T04:55:02.490Z,60.57
2019-04-05T04:57:34.355Z,61.30
2019-04-05T05:00:05.919Z,62.00
2019-04-05T05:02:35.035Z,61.97
2019-04-05T05:05:06.750Z,55.57
2019-04-05T05:07:36.683Z,55.33
2019-04-05T05:10:06.404Z,52.93
2019-04-05T05:12:36.078Z,54.03
2019-04-05T05:15:07.875Z,52.03
2019-04-05T05:17:39.208Z,53.23
2019-04-05T05:20:09.189Z,50.27
2019-04-05T05:22:40.949Z,51.57
2019-04-05T05:25:10.254Z,51.57
2019-04-05T05:27:39.781Z,53.07
2019-04-05T05:30:11.888Z,51.73
2019-04-05T05:32:41.334Z,53.30
2019-04-05T05:35:10.454Z,51.63
2019-04-05T05:37:41.047Z,50.20
2019-04-05T05:40:10.983Z,54.57
2019-04-05T05:42:42.600Z,52.33
2019-04-05T05:45:13.154Z,54.37
2019-04-05T05:47:51.629Z,53.53
2019-04-05T05:50:13.404Z,53.70
2019-04-05T05:52:43.412Z,55.70
2019-04-05T05:55:12.889Z,51.90
2019-04-05T05:57:42.074Z,52.90
2019-04-05T06:00:16.777Z,54.47
2019-04-05T06:02:48.232Z,53.13
2019-04-05T06:05:21.650Z,54.43
2019-04-05T06:07:52.697Z,51.33
2019-04-05T06:10:24.893Z,54.37
2019-04-05T06:12:54.040Z,54.77
2019-04-05T06:15:23.223Z,55.67
2019-04-05T06:18:04.139Z,53.80
2019-04-05T06:20:24.559Z,56.40
2019-04-05T06:22:54.297Z,57.60
2019-04-05T06:25:23.411Z,57.10
2019-04-05T06:27:54.913Z,56.47
2019-04-05T06:30:24.122Z,55.57
2019-04-05T06:32:54.871Z,62.27
2019-04-05T06:35:26.318Z,61.20
2019-04-05T06:37:56.396Z,60.47
2019-04-05T06:40:39.738Z,60.77
2019-04-05T06:42:58.566Z,58.07
2019-04-05T06:45:27.712Z,59.73
2019-04-05T06:47:56.890Z,55.93
2019-04-05T06:50:30.144Z,55.43
2019-04-05T06:52:59.259Z,57.43
2019-04-05T06:55:28.440Z,54.37
2019-04-05T06:57:59.329Z,55.53
2019-04-05T07:00:31.640Z,55.47
2019-04-05T07:03:00.838Z,54.53
2019-04-05T07:05:30.300Z,54.23
2019-04-05T07:07:59.568Z,58.93
2019-04-05T07:10:28.788Z,56.47
2019-04-05T07:12:58.106Z,58.77
2019-04-05T07:15:27.307Z,57.63
2019-04-05T07:17:56.429Z,58.47
2019-04-05T07:20:25.520Z,54.23
2019-04-05T07:22:56.949Z,57.67
2019-04-05T07:25:29.464Z,55.90
2019-04-05T07:27:58.760Z,55.30
2019-04-05T07:30:28.895Z,55.80
2019-04-05T07:32:58.255Z,58.17
2019-04-05T07:35:33.715Z,54.23
2019-04-05T07:38:02.612Z,53.67
2019-04-05T07:40:33.352Z,47.57
2019-04-05T07:43:02.443Z,47.27
2019-04-05T07:45:31.590Z,44.23
2019-04-05T07:48:01.140Z,42.03
2019-04-05T07:50:31.579Z,41.90
2019-04-05T07:53:01.033Z,41.53
2019-04-05T07:55:33.562Z,39.37
2019-04-05T08:01:54.326Z,38.90
2019-04-05T08:04:23.430Z,38.67
2019-04-05T08:06:55.574Z,37.83
2019-04-05T08:09:26.260Z,35.87
2019-04-05T08:11:55.841Z,34.23
2019-04-05T08:14:26.187Z,34.23
2019-04-05T08:16:57.597Z,33.67
2019-04-05T08:19:26.795Z,34.33
2019-04-05T08:21:55.912Z,32.53
2019-04-05T08:24:26.174Z,33.47
2019-04-05T08:26:55.609Z,32.33
2019-04-05T08:29:24.816Z,32.93
2019-04-05T08:31:56.270Z,34.37
2019-04-05T08:34:25.673Z,33.27
2019-04-05T08:36:54.832Z,31.87
2019-04-05T08:39:24.429Z,32.63
2019-04-05T08:41:55.727Z,29.87
2019-04-05T08:44:25.089Z,31.90
2019-04-05T08:46:54.529Z,32.53
2019-04-05T08:49:23.965Z,30.37
2019-04-05T08:51:54.147Z,30.70
2019-04-05T08:54:32.362Z,30.77
2019-04-05T08:56:54.858Z,30.90
2019-04-05T08:59:29.051Z,29.60
2019-04-05T09:01:58.183Z,28.43
2019-04-05T09:04:27.342Z,27.00
2019-04-05T09:06:57.889Z,26.17
2019-04-05T09:09:27.564Z,24.53
2019-04-05T09:11:57.595Z,25.27
2019-04-05T09:14:26.767Z,25.33
2019-04-05T09:16:55.967Z,25.50
2019-04-05T09:19:25.110Z,25.23
2019-04-05T09:21:54.482Z,22.70
2019-04-05T09:24:27.112Z,22.37
2019-04-05T09:26:57.371Z,20.33
2019-04-05T09:29:36.468Z,18.27
2019-04-05T09:32:05.460Z,16.93
2019-04-05T09:34:36.396Z,18.07
2019-04-05T09:37:05.529Z,18.83
2019-04-05T09:39:34.751Z,18.50
2019-04-05T09:42:03.990Z,18.03
2019-04-05T09:44:42.942Z,17.40
2019-04-05T09:47:14.370Z,18.33
2019-04-05T09:49:43.580Z,19.43
2019-04-05T09:52:17.440Z,19.13
2019-04-05T09:54:49.364Z,17.07
2019-04-05T09:57:18.493Z,16.43
2019-04-05T09:59:47.649Z,15.77
2019-04-05T10:02:16.808Z,17.70
2019-04-05T10:04:45.899Z,16.13
2019-04-05T10:07:18.198Z,17.77
2019-04-05T10:09:50.327Z,16.23
2019-04-05T10:12:18.372Z,16.37
2019-04-05T10:14:50.029Z,16.57
2019-04-05T10:17:19.249Z,17.27
2019-04-05T10:19:50.272Z,16.90
2019-04-05T10:22:20.733Z,17.23
2019-04-05T10:24:50.102Z,18.00
2019-04-05T10:27:23.237Z,17.50
2019-04-05T10:29:55.112Z,18.17
2019-04-05T10:32:24.142Z,18.23
2019-04-05T10:34:58.680Z,17.30
2019-04-05T10:37:29.104Z,18.17
2019-04-05T10:40:15.062Z,17.40
2019-04-05T10:42:50.835Z,17.83
2019-04-05T10:45:22.556Z,14.50
2019-04-05T10:47:56.730Z,16.43
2019-04-05T10:50:26.792Z,13.70
2019-04-05T10:52:55.908Z,14.30
2019-04-05T10:55:25.106Z,14.10
2019-04-05T10:57:56.299Z,15.03
2019-04-05T11:00:28.188Z,14.43
2019-04-05T11:03:02.250Z,12.97
2019-04-05T11:05:34.792Z,12.60
2019-04-05T11:08:04.102Z,12.30
2019-04-05T11:10:33.314Z,12.27
2019-04-05T11:13:05.422Z,11.30
2019-04-05T11:15:35.096Z,11.90
2019-04-05T11:18:09.096Z,11.50
2019-04-05T11:20:41.847Z,10.40
2019-04-05T11:23:11.709Z,10.93
2019-04-05T11:25:41.125Z,10.13
2019-04-05T11:28:10.417Z,8.67
2019-04-05T11:30:47.041Z,9.10
2019-04-05T11:33:19.466Z,8.90
2019-04-05T11:35:47.450Z,8.97
2019-04-05T11:38:19.282Z,9.97
2019-04-05T11:40:48.806Z,8.63
2019-04-05T11:43:21.015Z,8.70
2019-04-05T11:45:53.986Z,8.80
2019-04-05T11:48:25.748Z,9.00
2019-04-05T11:50:55.159Z,9.73
2019-04-05T11:53:24.350Z,8.83
2019-04-05T11:55:53.658Z,8.87
2019-04-05T11:58:23.928Z,9.40
2019-04-05T12:01:04.429Z,8.63
2019-04-05T12:03:33.541Z,7.87
2019-04-05T12:06:02.721Z,8.67
2019-04-05T12:08:32.162Z,8.37
2019-04-05T12:11:05.146Z,8.30
2019-04-05T12:13:37.368Z,8.27
2019-04-05T12:16:10.337Z,7.83
2019-04-05T12:18:41.024Z,7.10
2019-04-05T12:21:21.033Z,7.43
2019-04-05T12:23:52.347Z,7.53
2019-04-05T12:26:22.295Z,6.67
2019-04-05T12:28:53.390Z,7.03
2019-04-05T12:31:38.688Z,7.10
2019-04-05T12:34:08.546Z,6.93
2019-04-05T12:36:41.041Z,6.90
2019-04-05T12:39:11.325Z,6.17
2019-04-05T12:41:44.891Z,6.73
2019-04-05T12:44:15.183Z,6.87
2019-04-05T12:46:45.876Z,7.13
2019-04-05T12:49:23.781Z,7.17
2019-04-05T12:51:54.231Z,7.47
2019-04-05T12:54:24.173Z,7.20
2019-04-05T12:57:02.941Z,7.00
2019-04-05T12:59:33.915Z,6.83
2019-04-05T13:02:07.664Z,7.17
2019-04-05T13:04:39.839Z,7.50
2019-04-05T13:07:12.430Z,7.27
2019-04-05T13:09:46.396Z,6.93
2019-04-05T13:12:19.334Z,7.10
2019-04-05T13:14:59.610Z,7.93
2019-04-05T13:17:27.442Z,7.20
2019-04-05T13:19:58.418Z,7.40
2019-04-05T13:22:32.557Z,8.10
2019-04-05T13:25:05.898Z,7.80
2019-04-05T13:27:34.232Z,7.80
2019-04-05T13:30:03.548Z,7.80
2019-04-05T13:32:32.786Z,8.20
2019-04-05T13:35:10.649Z,8.40
2019-04-05T13:37:45.008Z,8.30
2019-04-05T13:40:16.165Z,7.73
2019-04-05T13:42:53.407Z,7.97
2019-04-05T13:45:25.237Z,7.83
2019-04-05T13:48:02.642Z,8.10
2019-04-05T13:50:32.127Z,8.97
2019-04-05T13:53:02.353Z,8.80
2019-04-05T13:55:31.489Z,8.80
2019-04-05T13:58:01.050Z,8.67
2019-04-05T14:00:30.365Z,9.10
2019-04-05T14:02:59.555Z,8.67
2019-04-05T14:05:28.721Z,8.37
2019-04-05T14:08:10.044Z,9.13
2019-04-05T14:10:33.890Z,9.47
2019-04-05T14:13:07.649Z,9.40
2019-04-05T14:15:41.814Z,8.97
2019-04-05T14:18:14.483Z,9.10
2019-04-05T14:20:45.542Z,9.17
2019-04-05T14:23:17.033Z,8.93
2019-04-05T14:25:47.598Z,8.83
2019-04-05T14:28:17.017Z,9.33
2019-04-05T14:30:47.692Z,9.60
2019-04-05T14:33:19.138Z,9.07
2019-04-05T14:35:48.883Z,9.53
2019-04-05T14:38:18.223Z,9.07
2019-04-05T14:40:47.410Z,9.47
2019-04-05T14:43:16.849Z,9.47
2019-04-05T14:45:46.542Z,9.10
2019-04-05T14:48:16.151Z,9.33
2019-04-05T14:50:45.364Z,9.27
2019-04-05T14:53:14.498Z,8.57
2019-04-05T14:55:43.644Z,8.50
2019-04-05T14:58:12.793Z,8.03
2019-04-05T15:00:42.001Z,8.67
2019-04-05T15:03:11.056Z,8.30
2019-04-05T15:05:40.215Z,8.60
2019-04-05T15:08:09.347Z,9.10
2019-04-05T15:10:40.921Z,8.77
2019-04-05T15:13:12.072Z,8.40
2019-04-05T15:15:41.188Z,8.60
2019-04-05T15:18:10.295Z,8.73
2019-04-05T15:20:39.420Z,8.80
2019-04-05T15:23:09.724Z,8.47
2019-04-05T15:25:39.942Z,8.80
2019-04-05T15:28:09.102Z,8.67
2019-04-05T15:30:38.311Z,9.50
2019-04-05T15:33:10.338Z,8.03
2019-04-05T15:35:43.710Z,8.73
2019-04-05T15:38:15.318Z,8.83
2019-04-05T15:40:44.511Z,8.83
2019-04-05T15:43:14.416Z,9.10
2019-04-05T15:45:44.849Z,9.43
2019-04-05T15:48:15.868Z,9.13
2019-04-05T15:50:45.040Z,9.07
2019-04-05T15:53:14.210Z,9.27
2019-04-05T15:55:43.629Z,9.00
2019-04-05T15:58:14.439Z,8.87
2019-04-05T16:00:45.447Z,8.73
2019-04-05T16:03:15.185Z,9.17
2019-04-05T16:05:48.950Z,9.73
2019-04-05T16:08:19.191Z,9.20
2019-04-05T16:10:49.899Z,8.40
2019-04-05T16:13:20.231Z,8.87
2019-04-05T16:15:49.475Z,8.70
2019-04-05T16:18:20.219Z,8.63
2019-04-05T16:20:49.402Z,8.93
2019-04-05T16:23:18.602Z,8.73
2019-04-05T16:25:47.771Z,8.77
2019-04-05T16:28:18.221Z,9.07
2019-04-05T16:30:47.327Z,9.07
2019-04-05T16:33:16.489Z,8.77
2019-04-05T16:35:46.132Z,9.27
2019-04-05T16:38:15.295Z,8.87
2019-04-05T16:40:46.369Z,9.10
2019-04-05T16:43:15.479Z,9.33
2019-04-05T16:45:44.615Z,8.53
2019-04-05T16:48:13.741Z,8.20
2019-04-05T16:50:45.985Z,8.30
2019-04-05T16:53:15.204Z,9.07
2019-04-05T16:55:45.510Z,8.63
2019-04-05T16:58:20.119Z,8.80
2019-04-05T17:00:46.775Z,9.30
2019-04-05T17:03:15.908Z,8.90
2019-04-05T17:05:45.056Z,8.60
2019-04-05T17:08:14.256Z,8.43
2019-04-05T17:10:43.618Z,8.47
2019-04-05T17:13:12.874Z,9.43
2019-04-05T17:15:44.277Z,8.97
2019-04-05T17:18:13.629Z,8.70
2019-04-05T17:20:42.908Z,8.60
2019-04-05T17:23:12.050Z,8.20
2019-04-05T17:25:41.216Z,9.10
2019-04-05T17:28:10.405Z,9.67
2019-04-05T17:30:39.527Z,7.60
2019-04-05T17:33:08.716Z,8.10
2019-04-05T17:35:37.839Z,8.33
2019-04-05T17:38:07.236Z,8.93
2019-04-05T17:40:36.435Z,8.70
2019-04-05T17:43:07.947Z,8.77
2019-04-05T17:45:37.119Z,9.30
2019-04-05T17:48:08.566Z,8.20
2019-04-05T17:50:37.725Z,7.77
2019-04-05T17:53:12.598Z,8.20
2019-04-05T17:55:37.895Z,7.87
2019-04-05T17:58:07.546Z,8.70
2019-04-05T18:00:37.262Z,7.90
2019-04-05T18:03:06.379Z,7.07
2019-04-05T18:05:35.524Z,6.83
2019-04-05T18:08:05.659Z,7.10
2019-04-05T18:10:34.808Z,6.93
2019-04-05T18:13:04.988Z,7.47
2019-04-05T18:15:34.112Z,7.07
2019-04-05T18:18:04.245Z,6.33
2019-04-05T18:20:33.505Z,6.70
2019-04-05T18:23:02.701Z,6.10
2019-04-05T18:25:31.870Z,6.80
2019-04-05T18:28:03.122Z,5.90
2019-04-05T18:30:32.823Z,6.20
2019-04-05T18:33:03.480Z,6.03
2019-04-05T18:35:32.740Z,5.90
2019-04-05T18:38:01.897Z,6.17
2019-04-05T18:40:39.977Z,6.07
2019-04-05T18:43:04.355Z,6.47
2019-04-05T18:45:34.511Z,6.67
2019-04-05T18:48:06.245Z,6.60
2019-04-05T18:50:35.490Z,5.90
2019-04-05T18:53:05.231Z,6.30
2019-04-05T18:55:34.833Z,6.27
2019-04-05T18:58:04.013Z,5.90
2019-04-05T19:00:33.387Z,5.97
2019-04-05T19:03:10.268Z,6.23
2019-04-05T19:05:39.482Z,6.23
2019-04-05T19:08:08.793Z,5.57
2019-04-05T19:10:39.419Z,6.23
2019-04-05T19:13:08.470Z,5.70
2019-04-05T19:15:37.806Z,5.83
2019-04-05T19:18:08.279Z,6.10
2019-04-05T19:20:45.488Z,6.23
2019-04-05T19:23:16.104Z,5.97
2019-04-05T19:25:50.793Z,6.03
2019-04-05T19:28:20.821Z,6.13
2019-04-05T19:48:31.028Z,5.50
2019-04-05T19:51:00.426Z,6.30
2019-04-05T19:53:29.642Z,5.57
2019-04-05T19:55:58.753Z,5.33
2019-04-05T19:58:27.925Z,6.13
2019-04-05T20:00:59.818Z,5.60
2019-04-05T20:03:28.997Z,5.20
2019-04-05T20:05:58.135Z,5.90
2019-04-05T20:08:28.545Z,6.40
2019-04-05T20:10:57.647Z,5.47
2019-04-05T20:13:27.907Z,6.50
2019-04-05T20:15:58.327Z,6.33
2019-04-05T20:18:27.935Z,5.50
2019-04-05T20:20:57.012Z,6.40
2019-04-05T20:23:27.442Z,5.57
2019-04-05T20:25:57.063Z,6.20
2019-04-05T20:28:26.145Z,6.33
2019-04-05T20:30:55.232Z,6.67
2019-04-05T20:33:26.466Z,5.70
2019-04-05T20:36:03.204Z,6.23
2019-04-05T20:38:32.319Z,6.83
2019-04-05T20:41:05.430Z,6.40
2019-04-05T20:43:34.648Z,5.63
2019-04-05T20:46:06.366Z,6.60
2019-04-05T20:48:35.459Z,6.53
2019-04-05T20:51:04.849Z,6.33
2019-04-05T20:53:37.129Z,6.70
2019-04-05T20:56:06.370Z,7.20
2019-04-05T20:58:35.529Z,6.40
2019-04-05T21:01:04.940Z,7.10
2019-04-05T21:03:35.092Z,7.70
2019-04-05T21:06:04.229Z,7.30
2019-04-05T21:08:33.461Z,7.10
2019-04-05T21:11:03.343Z,7.07
2019-04-05T21:13:32.740Z,7.07
2019-04-05T21:16:01.905Z,7.90
2019-04-05T21:18:31.293Z,7.07
2019-04-05T21:21:00.442Z,7.50
2019-04-05T21:23:30.751Z,7.67
2019-04-05T21:26:06.619Z,7.37
2019-04-05T21:28:36.521Z,7.93
2019-04-05T21:31:08.005Z,8.03
2019-04-05T21:33:37.425Z,8.67
2019-04-05T21:36:06.713Z,8.93
2019-04-05T21:38:38.814Z,8.20
2019-04-05T21:41:08.516Z,8.57
2019-04-05T21:43:37.754Z,8.70
2019-04-05T21:46:09.963Z,8.30
2019-04-05T21:48:39.173Z,8.50
2019-04-05T21:51:09.612Z,9.53
2019-04-05T21:53:39.012Z,8.30
2019-04-05T21:56:08.279Z,8.47
2019-04-05T21:58:37.505Z,9.13
2019-04-05T22:01:08.309Z,8.57
2019-04-05T22:03:37.537Z,9.90
2019-04-05T22:06:07.035Z,8.80
2019-04-05T22:08:36.265Z,8.47
2019-04-05T22:11:07.001Z,9.80
2019-04-05T22:13:36.393Z,9.20
2019-04-05T22:16:06.563Z,9.73
2019-04-05T22:18:35.730Z,9.10
2019-04-05T22:21:04.999Z,9.33
2019-04-05T22:23:34.137Z,10.33
2019-04-05T22:26:03.351Z,9.07
2019-04-05T22:28:32.623Z,9.87
2019-04-05T22:31:01.844Z,10.73
2019-04-05T22:33:33.221Z,10.70
2019-04-05T22:36:05.095Z,10.50
2019-04-05T22:38:34.693Z,10.97
2019-04-05T22:41:03.974Z,10.40
2019-04-05T22:43:33.227Z,11.27
2019-04-05T22:46:02.494Z,10.90
2019-04-05T22:48:42.851Z,11.97
2019-04-05T22:51:12.051Z,12.07
2019-04-05T22:53:41.220Z,11.67
2019-04-05T22:56:10.473Z,12.13
2019-04-05T22:58:40.075Z,11.13
2019-04-05T23:01:09.824Z,13.03
2019-04-05T23:03:39.127Z,12.37
2019-04-05T23:06:08.352Z,12.63
2019-04-05T23:08:37.948Z,14.63
2019-04-05T23:11:07.191Z,15.30
2019-04-05T23:13:36.414Z,15.80
2019-04-05T23:16:05.811Z,16.10
2019-04-05T23:18:35.576Z,16.03
2019-04-05T23:21:05.394Z,17.23
2019-04-05T23:23:35.131Z,16.90
2019-04-05T23:26:05.854Z,16.97
2019-04-05T23:28:35.127Z,18.63
2019-04-05T23:31:04.424Z,18.57
2019-04-05T23:33:35.409Z,17.40
2019-04-05T23:36:06.125Z,18.43
2019-04-05T23:38:37.991Z,18.93
2019-04-05T23:41:10.059Z,19.33
2019-04-05T23:43:41.270Z,18.93
2019-04-05T23:46:11.165Z,19.47
2019-04-05T23:48:40.423Z,19.93
2019-04-05T23:51:09.657Z,20.57
2019-04-05T23:53:38.874Z,20.03
2019-04-05T23:56:08.314Z,19.83
2019-04-05T23:58:37.731Z,20.30
